Time;durP1;ratioP1;P1;durP2;ratioP2;P2;SDS_P1;SDS_P2;PMS_P1;PMS_P2;Temp;Humidity;BMP_temperature;BMP_pressure;BME280_temperature;BME280_humidity;BME280_pressure;Samples;Min_cycle;Max_cycle;Signal;HPM_P1;HPM_P2
2023/01/07 00:05:16;;;;;;;10.95;9.45;;;9.20;99.90;;;;;;12565283;28;20040;-87
2023/01/07 00:11:21;;;;;;;13.60;11.00;;;9.30;99.90;;;;;;12583456;28;20041;-87
2023/01/07 00:17:23;;;;;;;14.07;11.73;;;9.40;99.90;;;;;;12572561;28;20083;-87
2023/01/07 00:23:26;;;;;;;15.40;12.88;;;9.40;99.90;;;;;;12584775;28;20136;-87
2023/01/07 00:29:28;;;;;;;16.23;13.35;;;9.40;99.90;;;;;;12587607;28;20442;-87
2023/01/07 00:35:31;;;;;;;17.52;13.48;;;9.50;99.90;;;;;;12530260;28;1060168;-87
2023/01/07 00:41:33;;;;;;;15.02;12.43;;;9.50;99.90;;;;;;12555413;28;20279;-87
2023/01/07 00:47:35;;;;;;;13.93;11.52;;;9.60;99.90;;;;;;12548788;28;20094;-87
2023/01/07 00:53:37;;;;;;;14.32;11.52;;;9.60;99.90;;;;;;12575852;28;20036;-87
2023/01/07 00:59:39;;;;;;;11.13;9.25;;;9.60;99.90;;;;;;12565781;28;20457;-87
2023/01/07 01:05:41;;;;;;;12.45;8.98;;;9.60;99.90;;;;;;12581847;28;20043;-87
2023/01/07 01:11:43;;;;;;;11.00;9.40;;;9.70;99.90;;;;;;12567303;28;20036;-88
2023/01/07 01:17:45;;;;;;;10.88;9.15;;;9.60;99.90;;;;;;12558595;28;20083;-87
2023/01/07 01:23:47;;;;;;;11.02;7.90;;;9.70;99.90;;;;;;12570956;28;20044;-87
2023/01/07 01:29:49;;;;;;;11.05;8.15;;;9.60;99.90;;;;;;12566018;28;20045;-87
2023/01/07 01:35:51;;;;;;;12.00;9.00;;;9.50;99.90;;;;;;12566388;28;20381;-87
2023/01/07 01:41:53;;;;;;;10.02;7.88;;;9.50;99.90;;;;;;12606227;28;20040;-87
2023/01/07 01:48:08;;;;;;;8.82;7.80;;;9.50;99.90;;;;;;12566990;28;20427;-87
2023/01/07 01:54:13;;;;;;;12.07;8.18;;;9.60;99.90;;;;;;12579579;28;20044;-88
2023/01/07 02:00:15;;;;;;;10.52;7.78;;;9.60;99.90;;;;;;12579771;28;20052;-87
2023/01/07 02:06:27;;;;;;;9.40;7.38;;;9.60;99.90;;;;;;12595186;28;20089;-88
2023/01/07 02:12:33;;;;;;;9.45;8.27;;;9.60;99.90;;;;;;12587253;28;20040;-87
2023/01/07 02:18:44;;;;;;;9.75;8.25;;;9.70;99.90;;;;;;12592731;28;20473;-87
2023/01/07 02:25:04;;;;;;;12.60;8.35;;;9.60;99.90;;;;;;12597745;28;20408;-87
2023/01/07 02:31:43;;;;;;;9.38;7.57;;;9.60;99.90;;;;;;12586555;28;20041;-87
2023/01/07 02:38:12;;;;;;;7.65;6.57;;;9.50;99.90;;;;;;12588751;28;20499;-88
2023/01/07 02:44:30;;;;;;;7.95;6.72;;;9.50;99.90;;;;;;12560795;28;20053;-88
2023/01/07 02:50:32;;;;;;;9.98;7.22;;;9.40;99.90;;;;;;12566002;28;20074;-88
2023/01/07 02:57:12;;;;;;;12.18;8.93;;;9.50;99.90;;;;;;12565469;28;20053;-88
2023/01/07 03:03:33;;;;;;;10.50;6.90;;;9.40;99.90;;;;;;12538318;28;20481;-88
2023/01/07 03:09:56;;;;;;;10.38;6.18;;;9.30;99.90;;;;;;12586030;28;20106;-88
2023/01/07 03:16:04;;;;;;;8.50;6.50;;;9.20;99.90;;;;;;12585949;28;20530;-87
2023/01/07 03:22:07;;;;;;;7.53;6.40;;;9.20;99.90;;;;;;12580100;28;20044;-88
2023/01/07 03:28:13;;;;;;;7.13;6.05;;;9.10;99.90;;;;;;12576533;28;20836;-87
2023/01/07 03:34:18;;;;;;;6.93;5.63;;;9.10;99.90;;;;;;12566161;28;20060;-87
2023/01/07 03:40:20;;;;;;;;;;;9.10;99.90;;;;;;12573037;28;20056;-87
2023/01/07 03:46:22;;;;;;;7.00;4.68;;;9.10;99.90;;;;;;12584469;28;20408;-87
2023/01/07 03:52:23;;;;;;;5.30;4.32;;;9.10;99.90;;;;;;12572461;28;20040;-87
2023/01/07 03:58:25;;;;;;;5.40;4.03;;;9.10;99.90;;;;;;12566164;28;20519;-87
2023/01/07 04:04:27;;;;;;;4.47;3.38;;;9.10;99.90;;;;;;12579754;28;20048;-87
2023/01/07 04:10:29;;;;;;;4.63;3.17;;;9.10;99.90;;;;;;12583951;28;20044;-87
2023/01/07 04:16:31;;;;;;;5.47;3.30;;;9.10;99.90;;;;;;12565220;28;20044;-86
2023/01/07 04:22:33;;;;;;;3.03;2.45;;;9.10;99.90;;;;;;12577325;28;20102;-87
2023/01/07 04:28:34;;;;;;;5.03;2.58;;;9.10;99.90;;;;;;12579823;28;20061;-87
2023/01/07 04:34:36;;;;;;;4.47;2.53;;;9.20;99.90;;;;;;12510783;28;20052;-87
2023/01/07 04:40:38;;;;;;;4.25;2.40;;;9.20;99.90;;;;;;12565390;28;20040;-87
2023/01/07 04:46:40;;;;;;;3.55;2.50;;;9.20;99.90;;;;;;12565164;28;20398;-87
2023/01/07 04:52:41;;;;;;;2.75;2.00;;;9.20;99.90;;;;;;12555408;28;20045;-87
2023/01/07 04:58:43;;;;;;;2.60;1.90;;;9.20;99.90;;;;;;12586565;28;20056;-87
2023/01/07 05:04:46;;;;;;;2.30;1.73;;;9.10;99.90;;;;;;12561455;28;20504;-87
2023/01/07 05:10:49;;;;;;;3.55;2.20;;;9.00;99.90;;;;;;12585902;28;20127;-87
2023/01/07 05:16:51;;;;;;;2.80;1.83;;;8.90;99.90;;;;;;12573516;28;20041;-87
2023/01/07 05:22:53;;;;;;;2.72;1.73;;;8.80;99.90;;;;;;12560646;28;20041;-88
2023/01/07 05:28:55;;;;;;;4.10;1.60;;;8.80;99.90;;;;;;12593971;28;20052;-87
2023/01/07 05:34:57;;;;;;;3.22;1.83;;;8.70;99.90;;;;;;12572178;28;20044;-87
2023/01/07 05:40:59;;;;;;;4.60;2.03;;;8.60;99.90;;;;;;12577188;28;20040;-87
2023/01/07 05:47:01;;;;;;;2.35;1.77;;;8.60;99.90;;;;;;12574556;28;20417;-87
2023/01/07 05:53:02;;;;;;;2.83;2.03;;;8.60;99.90;;;;;;12583812;28;20048;-87
2023/01/07 05:59:04;;;;;;;3.42;2.10;;;8.60;99.90;;;;;;12566912;28;20055;-87
2023/01/07 06:05:07;;;;;;;2.70;1.67;;;8.50;99.90;;;;;;12558171;28;20048;-87
2023/01/07 06:11:09;;;;;;;3.60;1.90;;;8.50;99.90;;;;;;12570238;28;20496;-87
2023/01/07 06:17:11;;;;;;;2.38;1.77;;;8.40;99.90;;;;;;12587985;28;20040;-87
2023/01/07 06:23:13;;;;;;;3.60;2.00;;;8.50;99.90;;;;;;12582063;28;20127;-87
2023/01/07 06:29:15;;;;;;;2.38;1.70;;;8.50;99.90;;;;;;12587904;28;20097;-87
2023/01/07 06:35:16;;;;;;;2.70;1.92;;;8.50;99.90;;;;;;12556203;28;20057;-87
2023/01/07 06:41:18;;;;;;;2.70;1.90;;;8.50;99.90;;;;;;12582628;28;20062;-87
2023/01/07 06:47:20;;;;;;;2.80;1.95;;;8.50;99.90;;;;;;12579898;28;20044;-87
2023/01/07 06:53:22;;;;;;;2.92;1.88;;;8.40;99.90;;;;;;12575575;28;20041;-87
2023/01/07 06:59:23;;;;;;;3.13;2.05;;;8.40;99.90;;;;;;12561666;28;20060;-87
2023/01/07 07:05:26;;;;;;;3.10;1.90;;;8.40;99.90;;;;;;12580837;28;20056;-87
2023/01/07 07:11:28;;;;;;;2.75;1.95;;;8.40;99.90;;;;;;12563822;28;20049;-87
2023/01/07 07:17:30;;;;;;;3.70;1.92;;;8.50;99.90;;;;;;12569955;28;20049;-87
2023/01/07 07:23:32;;;;;;;2.60;1.80;;;8.50;99.90;;;;;;12585732;28;20044;-87
2023/01/07 07:29:34;;;;;;;4.57;1.80;;;8.70;99.90;;;;;;12587383;28;20401;-88
2023/01/07 07:35:36;;;;;;;3.25;2.00;;;8.80;99.90;;;;;;12580448;28;20442;-88
2023/01/07 07:41:37;;;;;;;2.88;1.83;;;8.80;99.90;;;;;;12565988;28;20488;-88
2023/01/07 07:47:39;;;;;;;2.40;1.65;;;8.80;99.90;;;;;;12586589;28;20040;-88
2023/01/07 07:53:41;;;;;;;3.25;1.52;;;8.70;99.90;;;;;;12565421;28;20565;-88
2023/01/07 07:59:43;;;;;;;3.08;1.17;;;8.70;99.90;;;;;;12579789;28;20060;-88
2023/01/07 08:05:45;;;;;;;3.28;1.40;;;8.80;99.90;;;;;;12564527;28;20093;-88
2023/01/07 08:11:46;;;;;;;2.95;1.30;;;8.80;99.90;;;;;;12562993;28;20041;-88
2023/01/07 08:17:59;;;;;;;1.60;1.02;;;8.80;99.90;;;;;;12570778;28;20129;-88
2023/01/07 08:24:01;;;;;;;2.83;1.20;;;8.90;99.90;;;;;;12565202;28;20093;-88
2023/01/07 08:30:03;;;;;;;2.42;1.23;;;9.00;99.90;;;;;;12567187;28;20749;-88
2023/01/07 08:36:08;;;;;;;2.60;1.10;;;9.00;99.90;;;;;;12583000;28;20078;-88
2023/01/07 08:42:23;;;;;;;1.83;0.90;;;9.10;99.90;;;;;;12554522;28;20440;-88
2023/01/07 08:48:25;;;;;;;2.75;0.98;;;9.10;99.90;;;;;;12574207;28;20135;-88
2023/01/07 08:54:26;;;;;;;3.60;1.20;;;9.00;99.90;;;;;;12593145;28;20428;-88
2023/01/07 09:00:28;;;;;;;1.60;0.90;;;9.10;99.90;;;;;;12578596;28;20674;-88
2023/01/07 09:06:30;;;;;;;2.00;0.90;;;9.20;99.90;;;;;;12574963;28;20049;-88
2023/01/07 09:12:32;;;;;;;1.92;0.80;;;9.30;99.90;;;;;;12570736;28;20055;-88
2023/01/07 09:18:34;;;;;;;3.70;1.50;;;9.50;99.90;;;;;;12593138;28;20048;-88
2023/01/07 09:24:35;;;;;;;1.38;0.90;;;9.60;99.90;;;;;;12576042;28;20071;-88
2023/01/07 09:30:37;;;;;;;1.77;1.10;;;9.70;99.90;;;;;;12594713;28;20520;-88
2023/01/07 09:36:40;;;;;;;1.98;0.95;;;9.70;99.90;;;;;;12590381;28;20073;-88
2023/01/07 09:42:51;;;;;;;1.88;1.10;;;9.70;99.90;;;;;;12583111;28;20047;-88
2023/01/07 09:49:01;;;;;;;2.33;0.90;;;9.70;99.90;;;;;;12590704;28;20044;-88
2023/01/07 09:55:16;;;;;;;1.60;0.90;;;9.80;99.90;;;;;;12571562;28;20047;-88
2023/01/07 10:01:46;;;;;;;1.77;0.85;;;9.80;99.90;;;;;;12576362;28;20041;-88
2023/01/07 10:07:58;;;;;;;1.77;0.80;;;10.00;99.90;;;;;;12577038;28;20055;-87
2023/01/07 10:14:38;;;;;;;1.27;0.70;;;10.10;99.90;;;;;;12590364;28;20041;-87
2023/01/07 10:20:59;;;;;;;1.33;0.88;;;10.20;99.90;;;;;;12591003;28;20051;-87
2023/01/07 10:27:06;;;;;;;2.63;0.70;;;10.10;99.90;;;;;;12591219;28;20041;-87
2023/01/07 10:33:13;;;;;;;2.35;0.75;;;10.10;99.90;;;;;;12586983;28;20788;-87
2023/01/07 10:39:35;;;;;;;1.02;0.50;;;10.00;99.90;;;;;;12569190;28;20056;-87
2023/01/07 10:46:01;;;;;;;1.00;0.50;;;10.00;99.90;;;;;;12593241;28;20090;-87
2023/01/07 10:52:21;;;;;;;1.02;0.40;;;10.00;99.90;;;;;;12565446;28;20049;-87
2023/01/07 10:58:25;;;;;;;0.88;0.50;;;10.00;99.90;;;;;;12563309;28;20052;-87
2023/01/07 11:04:27;;;;;;;1.48;0.57;;;10.00;99.90;;;;;;12566045;28;20044;-87
2023/01/07 11:10:33;;;;;;;2.80;0.47;;;10.10;99.90;;;;;;12566319;28;20040;-87
2023/01/07 11:16:42;;;;;;;0.93;0.52;;;10.20;99.90;;;;;;12571532;28;20078;-87
2023/01/07 11:22:44;;;;;;;1.52;0.60;;;10.10;99.90;;;;;;12561803;28;20055;-87
2023/01/07 11:28:54;;;;;;;1.38;0.60;;;10.10;99.90;;;;;;12584583;28;20045;-87
2023/01/07 11:34:58;;;;;;;1.77;0.70;;;10.10;99.90;;;;;;12564037;28;20052;-87
2023/01/07 11:41:00;;;;;;;;;;;10.10;99.90;;;;;;12568534;28;20481;-86
2023/01/07 11:47:02;;;;;;;0.70;0.40;;;10.10;99.90;;;;;;12585976;28;19921;-86
2023/01/07 11:53:19;;;;;;;1.08;0.60;;;10.20;99.90;;;;;;12583229;28;20044;-86
2023/01/07 11:59:28;;;;;;;1.10;0.50;;;10.30;99.90;;;;;;12568016;28;20060;-87
2023/01/07 12:05:30;;;;;;;1.30;0.55;;;10.30;99.90;;;;;;12563214;28;20503;-86
2023/01/07 12:11:37;;;;;;;0.73;0.50;;;10.40;99.90;;;;;;12566958;28;20056;-87
2023/01/07 12:17:44;;;;;;;2.33;0.70;;;10.40;99.90;;;;;;12584700;28;20098;-87
2023/01/07 12:23:49;;;;;;;1.55;0.75;;;10.40;99.90;;;;;;12579477;28;20045;-86
2023/01/07 12:29:59;;;;;;;;;;;10.30;99.90;;;;;;12563344;28;20044;-86
2023/01/07 12:36:14;;;;;;;2.47;1.40;;;10.10;99.90;;;;;;12578592;28;20261;-86
2023/01/07 12:42:18;;;;;;;2.00;1.20;;;10.10;99.90;;;;;;12585084;28;20044;-86
2023/01/07 12:49:01;;;;;;;1.58;1.00;;;10.00;99.90;;;;;;12572254;28;20064;-86
2023/01/07 12:55:12;;;;;;;3.58;1.52;;;10.10;99.90;;;;;;12572974;28;20071;-86
2023/01/07 13:01:42;;;;;;;4.18;1.58;;;10.20;99.90;;;;;;12559072;28;20268;-86
2023/01/07 13:07:54;;;;;;;2.22;1.50;;;10.10;99.90;;;;;;12563531;28;20075;-86
2023/01/07 13:13:56;;;;;;;2.17;1.30;;;10.10;99.90;;;;;;12563506;28;20041;-86
2023/01/07 13:19:58;;;;;;;4.35;1.23;;;10.00;99.90;;;;;;12582874;28;20056;-86
2023/01/07 13:26:30;;;;;;;2.40;1.15;;;10.00;99.90;;;;;;12586189;28;20044;-86
2023/01/07 13:32:57;;;;;;;2.72;1.17;;;10.10;99.90;;;;;;12580219;28;20048;-86
2023/01/07 13:39:16;;;;;;;4.10;1.73;;;10.10;99.90;;;;;;12587072;28;20044;-86
2023/01/07 13:45:27;;;;;;;2.25;0.93;;;10.10;99.90;;;;;;12573126;28;20044;-86
2023/01/07 13:51:33;;;;;;;1.70;1.00;;;10.10;99.90;;;;;;12571926;28;20049;-86
2023/01/07 13:57:34;;;;;;;1.75;1.10;;;10.20;99.90;;;;;;12572933;28;21596;-86
2023/01/07 14:03:48;;;;;;;1.70;1.13;;;10.20;99.90;;;;;;12578806;28;20170;-86
2023/01/07 14:09:55;;;;;;;2.33;1.13;;;10.10;99.90;;;;;;12590625;28;20044;-86
2023/01/07 14:16:05;;;;;;;6.95;1.05;;;9.90;99.90;;;;;;12578944;28;20527;-86
2023/01/07 14:22:41;;;;;;;2.40;1.00;;;9.90;99.90;;;;;;12581267;28;20705;-86
2023/01/07 14:29:13;;;;;;;4.32;1.40;;;9.90;99.90;;;;;;12581036;28;20044;-85
2023/01/07 14:35:14;;;;;;;2.05;1.20;;;9.80;99.90;;;;;;12568168;28;20420;-86
2023/01/07 14:41:17;;;;;;;1.63;1.10;;;9.80;99.90;;;;;;12584566;28;20503;-86
2023/01/07 14:47:44;;;;;;;4.57;1.60;;;9.80;99.90;;;;;;12571503;28;20389;-86
2023/01/07 14:54:22;;;;;;;8.13;1.50;;;9.70;99.90;;;;;;12578780;28;20112;-85
2023/01/07 15:01:09;;;;;;;2.35;1.52;;;9.70;99.90;;;;;;12580926;28;20045;-86
2023/01/07 15:07:22;;;;;;;2.40;1.25;;;9.60;99.90;;;;;;12543257;28;20055;-86
2023/01/07 15:19:54;;;;;;;1.83;1.08;;;9.40;99.90;;;;;;12566902;28;20060;-85
2023/01/07 15:26:06;;;;;;;3.17;1.10;;;9.30;99.90;;;;;;12587279;28;20048;-86
2023/01/07 15:32:15;;;;;;;2.25;1.02;;;9.20;99.90;;;;;;12574635;28;20504;-86
2023/01/07 15:38:32;;;;;;;2.13;1.20;;;9.10;99.90;;;;;;12566195;28;20044;-85
2023/01/07 15:44:39;;;;;;;3.15;1.30;;;9.00;99.90;;;;;;12583367;28;20565;-86
2023/01/07 15:50:45;;;;;;;2.15;1.10;;;9.00;99.90;;;;;;12559502;28;20087;-86
2023/01/07 15:56:48;;;;;;;2.50;1.30;;;9.10;99.90;;;;;;12587212;28;20508;-85
2023/01/07 16:02:51;;;;;;;10.53;1.53;;;9.00;99.90;;;;;;12549445;28;20040;-85
2023/01/07 16:08:53;;;;;;;1.92;1.10;;;9.00;99.90;;;;;;12577327;28;20040;-85
2023/01/07 16:14:55;;;;;;;2.92;1.40;;;8.90;99.90;;;;;;12581229;28;20040;-85
2023/01/07 16:21:12;;;;;;;2.85;1.23;;;8.80;99.90;;;;;;12585149;28;20614;-85
2023/01/07 16:27:15;;;;;;;2.53;1.40;;;8.70;99.90;;;;;;12566443;28;20044;-85
2023/01/07 16:33:21;;;;;;;2.38;1.30;;;8.60;99.90;;;;;;12577995;28;20503;-85
2023/01/07 16:39:27;;;;;;;2.55;1.55;;;8.70;99.90;;;;;;12586569;28;20056;-85
2023/01/07 16:45:31;;;;;;;4.03;1.85;;;8.60;99.90;;;;;;12546217;28;20053;-85
2023/01/07 16:51:34;;;;;;;2.88;1.80;;;8.50;99.90;;;;;;12539854;28;20044;-85
2023/01/07 16:57:41;;;;;;;2.92;1.77;;;8.40;99.90;;;;;;12585359;28;20056;-85
2023/01/07 17:03:58;;;;;;;2.83;1.60;;;8.40;99.90;;;;;;12578134;28;20405;-85
2023/01/07 17:10:00;;;;;;;2.20;1.30;;;8.40;99.90;;;;;;12588047;28;20040;-85
2023/01/07 17:16:43;;;;;;;2.67;1.48;;;8.30;99.90;;;;;;12592766;28;20033;-85
2023/01/07 17:22:46;;;;;;;2.33;1.30;;;8.50;99.90;;;;;;12554396;28;20037;-85
2023/01/07 17:28:52;;;;;;;2.50;1.50;;;8.40;99.90;;;;;;12574245;28;20086;-85
2023/01/07 17:34:54;;;;;;;3.45;1.85;;;8.40;99.90;;;;;;12585889;28;20053;-85
2023/01/07 17:40:56;;;;;;;5.15;2.15;;;8.40;99.90;;;;;;12572893;28;21059;-85
2023/01/07 17:46:58;;;;;;;3.90;1.80;;;8.40;99.90;;;;;;12564064;28;20052;-85
2023/01/07 17:53:00;;;;;;;4.10;2.15;;;8.40;99.90;;;;;;12583413;28;20044;-85
2023/01/07 17:59:02;;;;;;;4.05;2.03;;;8.30;99.90;;;;;;12585944;28;20044;-85
2023/01/07 18:05:05;;;;;;;2.83;1.98;;;8.40;99.90;;;;;;12583755;28;20040;-85
2023/01/07 18:17:32;;;;;;;4.15;2.13;;;8.20;99.90;;;;;;12587358;28;20507;-85
2023/01/07 18:23:34;;;;;;;5.53;2.13;;;8.30;99.90;;;;;;12588532;28;20040;-85
2023/01/07 18:29:35;;;;;;;4.82;1.90;;;8.30;99.90;;;;;;12573662;28;20615;-85
2023/01/07 18:35:41;;;;;;;3.35;1.73;;;8.40;99.90;;;;;;12586229;28;20052;-85
2023/01/07 18:41:42;;;;;;;2.67;1.73;;;8.30;99.90;;;;;;12588582;28;20045;-85
2023/01/07 18:47:44;;;;;;;3.70;2.17;;;8.30;99.90;;;;;;12587711;28;20052;-85
2023/01/07 18:53:46;;;;;;;4.97;2.10;;;8.40;99.90;;;;;;12587194;28;20037;-84
2023/01/07 18:59:48;;;;;;;3.55;2.00;;;8.40;99.90;;;;;;12584354;28;20056;-84
2023/01/07 19:05:50;;;;;;;4.78;2.13;;;8.50;99.90;;;;;;12578489;28;20070;-85
2023/01/07 19:11:52;;;;;;;3.33;2.15;;;8.40;99.90;;;;;;12571840;28;20452;-84
2023/01/07 19:17:53;;;;;;;3.42;1.70;;;8.40;99.90;;;;;;12582360;28;20048;-85
2023/01/07 19:23:55;;;;;;;4.28;2.30;;;8.40;99.90;;;;;;12582094;28;20040;-85
2023/01/07 19:29:57;;;;;;;3.72;2.22;;;8.40;99.90;;;;;;12581132;28;20434;-84
2023/01/07 19:36:07;;;;;;;3.83;2.20;;;8.40;99.90;;;;;;12583296;28;20044;-84
2023/01/07 19:42:11;;;;;;;3.67;2.20;;;8.40;99.90;;;;;;12578975;28;20485;-85
2023/01/07 19:48:13;;;;;;;3.70;2.30;;;8.50;99.90;;;;;;12583822;28;20044;-84
2023/01/07 19:54:15;;;;;;;5.20;2.15;;;8.40;99.90;;;;;;12574631;28;20515;-85
2023/01/07 20:00:17;;;;;;;4.85;2.30;;;8.40;99.90;;;;;;12582434;28;20412;-84
2023/01/07 20:06:22;;;;;;;4.25;1.85;;;8.40;99.90;;;;;;12560444;28;20624;-84
2023/01/07 20:12:23;;;;;;;3.38;2.17;;;8.30;99.90;;;;;;12563046;28;21305;-84
2023/01/07 20:18:25;;;;;;;4.25;2.33;;;8.40;99.90;;;;;;12577522;28;20060;-85
2023/01/07 20:24:28;;;;;;;4.28;2.25;;;8.40;99.90;;;;;;12570373;28;20040;-84
2023/01/07 20:30:30;;;;;;;3.83;2.33;;;8.20;99.90;;;;;;12555251;28;20044;-84
2023/01/07 20:36:32;;;;;;;4.57;2.60;;;8.20;99.90;;;;;;12573901;28;20048;-85
2023/01/07 20:42:33;;;;;;;4.00;2.50;;;8.00;99.90;;;;;;12588695;28;20041;-85
2023/01/07 20:48:35;;;;;;;3.80;2.40;;;8.10;99.90;;;;;;12592924;28;20059;-84
2023/01/07 20:54:37;;;;;;;4.60;2.33;;;8.10;99.90;;;;;;12566918;28;20045;-84
2023/01/07 21:00:39;;;;;;;5.20;2.30;;;8.10;99.90;;;;;;12592718;28;20041;-84
2023/01/07 21:06:42;;;;;;;5.55;2.63;;;8.30;99.90;;;;;;12591697;28;20058;-84
2023/01/07 21:12:45;;;;;;;5.38;2.30;;;8.60;99.90;;;;;;12588941;28;20037;-85
2023/01/07 21:18:47;;;;;;;5.07;2.33;;;8.60;99.90;;;;;;12594382;28;20044;-85
2023/01/07 21:24:49;;;;;;;3.20;2.30;;;8.60;99.90;;;;;;12591973;28;20119;-85
2023/01/07 21:30:50;;;;;;;6.40;2.67;;;8.60;99.90;;;;;;12592889;28;20424;-85
2023/01/07 21:36:52;;;;;;;4.35;2.42;;;8.60;99.90;;;;;;12589271;28;20045;-85
2023/01/07 21:42:54;;;;;;;3.75;2.33;;;8.60;99.90;;;;;;12586912;28;20052;-85
2023/01/07 21:48:56;;;;;;;4.40;2.55;;;8.50;99.90;;;;;;12597704;28;20044;-85
2023/01/07 21:54:57;;;;;;;3.83;2.40;;;8.40;99.90;;;;;;12591467;28;20051;-84
2023/01/07 22:00:59;;;;;;;4.63;2.35;;;8.50;99.90;;;;;;12586737;28;20052;-85
2023/01/07 22:07:01;;;;;;;4.15;2.58;;;8.70;99.90;;;;;;12585199;28;20056;-85
2023/01/07 22:13:03;;;;;;;4.15;2.40;;;8.80;99.90;;;;;;12588864;28;20045;-85
2023/01/07 22:19:05;;;;;;;4.32;2.47;;;8.80;99.90;;;;;;12596995;28;20044;-84
2023/01/07 22:25:07;;;;;;;4.13;2.42;;;8.90;99.90;;;;;;12569196;28;20037;-85
2023/01/07 22:31:23;;;;;;;4.13;2.35;;;9.00;99.90;;;;;;12583825;28;20051;-85
2023/01/07 22:37:25;;;;;;;4.05;2.10;;;9.00;99.90;;;;;;12576965;28;20057;-84
2023/01/07 22:43:28;;;;;;;4.35;2.50;;;9.00;99.90;;;;;;12573727;28;20075;-85
2023/01/07 22:49:31;;;;;;;3.67;2.17;;;9.00;99.90;;;;;;12584792;28;20036;-85
2023/01/07 22:55:33;;;;;;;4.13;2.30;;;9.00;99.90;;;;;;12592397;28;20041;-85
2023/01/07 23:01:36;;;;;;;4.63;2.17;;;9.00;99.90;;;;;;12569171;28;20571;-85
2023/01/07 23:07:38;;;;;;;4.50;2.50;;;8.90;99.90;;;;;;12588966;28;20051;-85
2023/01/07 23:13:40;;;;;;;4.88;2.40;;;8.70;99.90;;;;;;12572581;28;20056;-85
2023/01/07 23:19:42;;;;;;;4.45;2.30;;;8.70;99.90;;;;;;12590529;28;20041;-84
2023/01/07 23:25:46;;;;;;;4.07;2.40;;;8.70;99.90;;;;;;12583192;28;20545;-85
2023/01/07 23:31:48;;;;;;;3.83;2.13;;;8.70;99.90;;;;;;12587125;28;20072;-85
2023/01/07 23:37:50;;;;;;;4.00;2.20;;;8.80;99.90;;;;;;12566011;28;20048;-85
2023/01/07 23:43:52;;;;;;;3.33;2.20;;;8.90;99.90;;;;;;12557444;28;20041;-84
2023/01/07 23:49:53;;;;;;;3.20;2.03;;;9.10;99.90;;;;;;12571171;28;20134;-85
2023/01/07 23:55:56;;;;;;;4.00;1.80;;;9.20;99.90;;;;;;12565797;28;20048;-85
